Time;durP1;ratioP1;P1;durP2;ratioP2;P2;SDS_P1;SDS_P2;PMS_P1;PMS_P2;Temp;Humidity;BMP_temperature;BMP_pressure;BME280_temperature;BME280_humidity;BME280_pressure;Samples;Min_cycle;Max_cycle;Signal;HPM_P1;HPM_P2
2021/06/19 00:00:56;;;;;;;7.90;5.10;;;;;;;22.07;54.96;100360.56;4973807;28;20518;-73
2021/06/19 00:03:21;;;;;;;8.00;4.70;;;;;;;22.06;54.43;100360.63;4974062;28;20047;-73
2021/06/19 00:05:47;;;;;;;6.00;4.55;;;;;;;22.03;54.81;100363.50;4973331;28;20029;-74
2021/06/19 00:08:13;;;;;;;6.72;4.97;;;;;;;21.97;55.02;100353.13;4972366;28;20510;-74
2021/06/19 00:10:39;;;;;;;6.72;4.75;;;;;;;21.89;55.26;100362.47;4971968;28;20494;-73
2021/06/19 00:13:04;;;;;;;6.88;4.90;;;;;;;21.82;55.47;100370.94;4973464;28;20039;-72
2021/06/19 00:15:30;;;;;;;6.22;4.85;;;;;;;21.78;55.27;100370.25;4973267;28;20102;-72
2021/06/19 00:17:55;;;;;;;6.13;4.70;;;;;;;21.75;55.30;100373.13;4973501;28;20459;-72
2021/06/19 00:20:25;;;;;;;6.68;4.97;;;;;;;21.69;56.31;100370.75;4954111;28;20071;-73
2021/06/19 00:22:51;;;;;;;6.45;4.90;;;;;;;21.65;55.85;100379.94;4973543;28;20035;-72
2021/06/19 00:25:17;;;;;;;5.60;4.93;;;;;;;21.64;56.06;100372.81;4955735;28;20034;-73
2021/06/19 00:27:44;;;;;;;5.63;4.53;;;;;;;21.66;55.83;100365.56;4973397;28;20092;-73
2021/06/19 00:30:12;;;;;;;7.07;4.93;;;;;;;21.68;55.44;100371.72;4973400;28;20035;-73
2021/06/19 00:32:38;;;;;;;6.20;4.78;;;;;;;21.71;55.63;100368.84;4973193;28;20483;-74
2021/06/19 00:35:05;;;;;;;7.00;5.28;;;;;;;21.72;55.61;100367.94;4955753;28;20121;-73
2021/06/19 00:37:33;;;;;;;7.75;4.88;;;;;;;21.71;55.42;100376.06;4955920;28;20471;-74
2021/06/19 00:39:58;;;;;;;5.45;4.68;;;;;;;21.63;56.32;100374.66;4955901;28;20065;-73
2021/06/19 00:42:23;;;;;;;6.63;5.28;;;;;;;21.58;56.01;100373.16;4973069;28;20084;-74
2021/06/19 00:44:49;;;;;;;6.40;4.78;;;;;;;21.51;56.65;100377.13;4972766;28;20039;-75
2021/06/19 00:47:14;;;;;;;6.40;5.20;;;;;;;21.45;56.77;100376.50;4973006;28;20046;-74
2021/06/19 00:49:40;;;;;;;9.35;5.43;;;;;;;21.47;56.78;100375.56;4972968;28;20458;-74
2021/06/19 00:52:05;;;;;;;8.02;5.18;;;;;;;21.44;56.98;100376.59;4973003;28;20034;-73
2021/06/19 00:54:31;;;;;;;6.28;5.35;;;;;;;21.44;56.93;100366.72;4972484;28;20089;-74
2021/06/19 00:56:56;;;;;;;5.68;5.18;;;;;;;21.41;57.28;100377.63;4972433;28;20092;-74
2021/06/19 00:59:22;;;;;;;8.77;5.75;;;;;;;21.42;56.86;100371.31;4972682;28;20073;-74
2021/06/19 01:01:49;;;;;;;8.23;5.25;;;;;;;21.42;57.16;100370.44;4972702;28;20140;-74
2021/06/19 01:04:14;;;;;;;6.05;5.07;;;;;;;21.41;57.21;100371.41;4972442;28;20039;-74
2021/06/19 01:06:40;;;;;;;7.72;5.32;;;;;;;21.30;57.49;100369.28;4972007;28;20049;-74
2021/06/19 01:09:08;;;;;;;6.55;5.38;;;;;;;21.21;57.41;100364.38;4971893;28;20097;-74
2021/06/19 01:11:34;;;;;;;8.35;5.30;;;;;;;21.19;57.81;100366.25;4971883;28;20574;-74
2021/06/19 01:13:59;;;;;;;6.53;5.50;;;;;;;21.23;57.96;100367.84;4971744;28;20062;-74
2021/06/19 01:16:25;;;;;;;8.23;5.07;;;;;;;21.21;58.19;100359.00;4971363;28;20803;-74
2021/06/19 01:18:50;;;;;;;6.15;5.55;;;;;;;21.10;58.15;100358.72;4968843;28;20067;-74
2021/06/19 01:21:22;;;;;;;7.28;5.57;;;;;;;21.01;58.62;100352.88;4971775;28;20399;-74
2021/06/19 01:23:48;;;;;;;6.00;4.95;;;;;;;21.00;58.48;100347.59;4971723;28;20041;-74
2021/06/19 01:26:15;;;;;;;6.43;5.43;;;;;;;20.98;59.06;100355.69;4971388;28;20125;-74
2021/06/19 01:28:41;;;;;;;5.93;5.32;;;;;;;20.99;58.78;100352.09;4971566;28;20037;-74
2021/06/19 01:31:07;;;;;;;7.13;5.32;;;;;;;21.01;58.35;100350.19;4971641;28;20037;-74
2021/06/19 01:33:32;;;;;;;7.50;5.32;;;;;;;21.02;58.28;100353.75;4971531;28;20038;-73
2021/06/19 01:35:57;;;;;;;7.07;5.22;;;;;;;20.97;58.40;100351.28;4971257;28;20388;-74
2021/06/19 01:38:23;;;;;;;6.53;5.28;;;;;;;20.95;58.90;100353.19;4971509;28;20093;-74
2021/06/19 01:40:48;;;;;;;7.35;5.32;;;;;;;20.95;59.16;100357.69;4971399;28;20038;-73
2021/06/19 01:43:13;;;;;;;6.30;5.03;;;;;;;20.89;59.30;100355.34;4954118;28;20101;-74
2021/06/19 01:45:38;;;;;;;6.95;5.45;;;;;;;20.86;59.06;100355.50;4971058;28;20042;-74
2021/06/19 01:48:07;;;;;;;9.10;6.05;;;;;;;20.82;59.27;100348.53;4971363;28;20038;-74
2021/06/19 01:50:34;;;;;;;8.48;5.97;;;;;;;20.75;59.21;100342.63;4971406;28;20045;-74
2021/06/19 01:53:01;;;;;;;9.90;8.00;;;;;;;20.75;59.22;100334.56;4971249;28;20090;-74
2021/06/19 01:55:26;;;;;;;9.43;7.00;;;;;;;20.78;58.95;100339.81;4970972;28;20491;-74
2021/06/19 01:57:59;;;;;;;9.88;7.38;;;;;;;20.78;59.80;100339.81;4971144;28;20041;-74
2021/06/19 02:00:29;;;;;;;7.22;6.45;;;;;;;20.70;59.30;100333.97;4971366;28;20114;-74
2021/06/19 02:02:55;;;;;;;7.45;5.82;;;;;;;20.59;59.43;100345.22;4971553;28;20038;-74
2021/06/19 02:05:22;;;;;;;7.25;5.80;;;;;;;20.49;59.93;100342.13;4968964;28;51141;-74
2021/06/19 02:07:55;;;;;;;7.20;6.35;;;;;;;20.48;59.96;100343.03;4972268;28;20045;-74
2021/06/19 02:10:24;;;;;;;7.05;6.35;;;;;;;20.50;60.36;100343.84;4972311;28;20589;-74
2021/06/19 02:12:50;;;;;;;7.65;6.72;;;;;;;20.40;60.91;100345.25;4976134;28;20380;-74
2021/06/19 02:15:16;;;;;;;7.22;6.05;;;;;;;20.31;60.01;100343.91;4975605;28;20173;-74
2021/06/19 02:17:42;;;;;;;8.20;6.50;;;;;;;20.24;61.17;100344.28;4957649;28;20411;-74
2021/06/19 02:20:09;;;;;;;7.00;5.80;;;;;;;20.22;61.15;100347.00;4975755;28;20050;-74
2021/06/19 02:22:35;;;;;;;6.18;5.57;;;;;;;20.19;61.11;100355.22;4969541;28;20058;-74
2021/06/19 02:25:08;;;;;;;6.38;5.53;;;;;;;20.17;61.35;100356.22;4975249;28;20074;-74
2021/06/19 02:27:34;;;;;;;7.55;6.35;;;;;;;20.12;61.41;100349.28;4972223;28;20043;-74
2021/06/19 02:29:59;;;;;;;7.05;5.78;;;;;;;20.07;61.73;100348.66;4955800;28;20027;-74
2021/06/19 02:32:25;;;;;;;7.15;5.95;;;;;;;20.08;61.60;100349.50;4975584;28;20491;-73
2021/06/19 02:34:51;;;;;;;7.35;5.60;;;;;;;20.03;61.71;100344.38;4975176;28;20034;-74
2021/06/19 02:37:17;;;;;;;6.88;6.10;;;;;;;19.99;61.59;100342.78;4975318;28;20042;-74
2021/06/19 02:39:42;;;;;;;7.72;6.25;;;;;;;19.98;62.07;100343.72;4975348;28;20450;-73
2021/06/19 02:42:08;;;;;;;7.43;6.28;;;;;;;19.98;61.81;100351.75;4975307;28;20037;-74
2021/06/19 02:44:33;;;;;;;8.20;7.15;;;;;;;19.93;63.31;100351.09;4975071;28;20039;-74
2021/06/19 02:46:58;;;;;;;7.38;6.55;;;;;;;19.80;63.11;100356.19;4975147;28;20031;-74
2021/06/19 02:49:24;;;;;;;7.45;6.53;;;;;;;19.72;63.14;100360.16;4975179;28;20058;-73
2021/06/19 02:51:49;;;;;;;8.10;6.95;;;;;;;19.74;62.76;100353.78;4975419;28;20031;-74
2021/06/19 02:54:14;;;;;;;8.27;6.70;;;;;;;19.78;63.35;100357.19;4974508;28;20031;-74
2021/06/19 02:56:40;;;;;;;8.65;6.82;;;;;;;19.79;63.19;100354.44;4975023;28;20043;-73
2021/06/19 02:59:05;;;;;;;9.73;5.90;;;;;;;19.81;63.15;100360.59;4975032;28;20054;-73
2021/06/19 03:01:31;;;;;;;7.15;6.03;;;;;;;19.79;63.35;100372.34;4974988;28;20035;-74
2021/06/19 03:03:56;;;;;;;7.60;6.35;;;;;;;19.78;63.57;100367.91;4974933;28;20045;-74
2021/06/19 03:06:21;;;;;;;7.80;6.57;;;;;;;19.79;63.40;100366.97;4974336;28;20035;-74
2021/06/19 03:08:47;;;;;;;8.80;6.40;;;;;;;19.77;63.80;100367.03;4974774;28;20050;-74
2021/06/19 03:11:12;;;;;;;8.77;6.18;;;;;;;19.82;63.32;100372.19;4974819;28;20097;-74
2021/06/19 03:13:37;;;;;;;10.52;7.10;;;;;;;19.80;63.44;100366.88;4973803;28;20043;-74
2021/06/19 03:16:03;;;;;;;8.38;6.28;;;;;;;19.83;63.44;100374.81;4974626;28;20030;-74
2021/06/19 03:18:29;;;;;;;11.30;6.65;;;;;;;19.89;63.31;100371.81;4974501;28;20045;-74
2021/06/19 03:20:54;;;;;;;7.95;6.85;;;;;;;19.92;63.83;100371.66;4974686;28;20030;-74
2021/06/19 03:23:19;;;;;;;9.38;6.70;;;;;;;19.79;64.31;100375.00;4974495;28;20097;-74
2021/06/19 03:25:46;;;;;;;8.27;6.50;;;;;;;19.82;63.67;100373.03;4974197;28;20027;-73
2021/06/19 03:28:14;;;;;;;6.78;6.07;;;;;;;19.87;63.54;100370.16;4974494;28;20113;-73
2021/06/19 03:30:42;;;;;;;8.13;6.50;;;;;;;19.85;64.45;100374.72;4974583;28;20094;-73
2021/06/19 03:33:08;;;;;;;8.25;6.00;;;;;;;19.84;64.18;100372.97;4974573;28;20407;-73
2021/06/19 03:35:34;;;;;;;7.68;6.20;;;;;;;19.91;63.76;100379.75;4973968;28;20050;-74
2021/06/19 03:38:00;;;;;;;6.65;5.85;;;;;;;19.99;63.31;100377.63;4971843;28;20027;-74
2021/06/19 03:40:27;;;;;;;7.63;6.15;;;;;;;20.08;63.28;100385.19;4971837;28;20526;-75
2021/06/19 03:42:54;;;;;;;7.00;5.55;;;;;;;20.14;63.08;100382.22;4974224;28;20046;-74
2021/06/19 03:45:22;;;;;;;7.03;6.32;;;;;;;20.20;63.18;100386.44;4973811;28;20049;-74
2021/06/19 03:47:48;;;;;;;8.55;6.57;;;;;;;20.29;63.05;100393.16;4971938;28;20034;-74
2021/06/19 03:50:18;;;;;;;8.02;5.70;;;;;;;20.36;62.80;100391.91;4973371;28;20034;-74
2021/06/19 03:52:44;;;;;;;9.15;7.40;;;;;;;20.40;62.33;100387.25;4972827;28;20046;-74
2021/06/19 03:55:10;;;;;;;8.18;6.85;;;;;;;20.44;62.66;100381.69;4972372;28;20027;-73
2021/06/19 03:57:36;;;;;;;7.13;6.40;;;;;;;20.54;63.14;100384.78;4955413;28;20043;-74
2021/06/19 04:00:05;;;;;;;11.45;9.90;;;;;;;20.60;62.71;100378.28;4971932;28;20037;-73
2021/06/19 04:02:38;;;;;;;9.23;7.88;;;;;;;20.70;62.98;100376.88;4971001;28;20046;-74
2021/06/19 04:05:05;;;;;;;10.05;9.05;;;;;;;20.77;63.12;100383.63;4973436;28;20105;-73
2021/06/19 04:07:31;;;;;;;8.13;7.38;;;;;;;20.81;63.57;100390.59;4973693;28;20523;-73
2021/06/19 04:09:56;;;;;;;13.68;12.27;;;;;;;20.93;62.68;100383.72;4973818;28;20042;-73
2021/06/19 04:12:22;;;;;;;10.35;9.30;;;;;;;21.04;63.22;100391.22;4973735;28;20053;-73
2021/06/19 04:14:48;;;;;;;8.38;7.47;;;;;;;21.06;63.38;100392.88;4970187;28;20043;-73
2021/06/19 04:17:14;;;;;;;9.32;7.60;;;;;;;21.09;63.60;100391.84;4972524;28;20034;-74
2021/06/19 04:19:40;;;;;;;9.00;8.13;;;;;;;21.18;62.96;100386.88;4973642;28;20041;-74
2021/06/19 04:22:07;;;;;;;9.88;8.25;;;;;;;21.28;63.30;100384.59;4973511;28;20043;-74
2021/06/19 04:24:34;;;;;;;8.43;7.05;;;;;;;21.40;62.69;100392.00;4973221;28;20130;-74
2021/06/19 04:26:59;;;;;;;8.00;7.15;;;;;;;21.53;62.53;100389.53;4973377;28;20214;-74
2021/06/19 04:29:27;;;;;;;7.75;6.50;;;;;;;21.64;62.67;100391.63;4973335;28;20154;-74
2021/06/19 04:31:54;;;;;;;7.65;6.32;;;;;;;21.73;62.71;100382.22;4972704;28;20040;-74
2021/06/19 04:34:20;;;;;;;10.60;9.48;;;;;;;21.82;61.27;100381.69;4972885;28;20053;-74
2021/06/19 04:36:45;;;;;;;11.73;7.78;;;;;;;21.95;60.15;100376.50;4973208;28;20035;-74
2021/06/19 04:39:11;;;;;;;8.18;7.32;;;;;;;22.08;59.43;100380.25;4971712;28;20047;-74
2021/06/19 04:42:03;;;;;;;8.23;7.13;;;;;;;22.21;59.58;100388.50;4973175;28;20027;-74
2021/06/19 04:46:51;;;;;;;15.77;14.27;;;;;;;22.44;58.59;100374.63;4956257;28;20041;-74
2021/06/19 04:49:17;;;;;;;14.02;12.63;;;;;;;22.56;58.38;100369.47;4973438;28;20483;-74
2021/06/19 04:51:42;;;;;;;13.43;12.02;;;;;;;22.66;58.46;100370.66;4971490;28;20038;-74
2021/06/19 04:54:08;;;;;;;15.23;13.82;;;;;;;22.73;58.63;100370.22;4972590;28;20114;-74
2021/06/19 04:56:34;;;;;;;14.95;13.55;;;;;;;22.85;58.11;100373.16;4955399;28;20555;-75
2021/06/19 04:59:00;;;;;;;11.57;10.40;;;;;;;22.96;58.13;100370.69;4971399;28;20427;-75
2021/06/19 05:01:26;;;;;;;11.90;10.77;;;;;;;23.07;58.13;100367.38;4972846;28;20046;-74
2021/06/19 05:03:51;;;;;;;14.00;12.65;;;;;;;23.17;57.80;100374.78;4972839;28;20030;-74
2021/06/19 05:06:18;;;;;;;14.70;13.38;;;;;;;23.29;57.61;100370.50;4972258;28;20505;-74
2021/06/19 05:08:43;;;;;;;12.35;11.15;;;;;;;23.41;56.97;100376.94;4972742;28;20065;-74
2021/06/19 05:11:08;;;;;;;13.23;11.50;;;;;;;23.51;56.57;100377.22;4972854;28;20407;-74
2021/06/19 05:13:34;;;;;;;14.75;13.07;;;;;;;23.62;56.29;100388.19;4972607;28;20403;-75
2021/06/19 05:15:59;;;;;;;8.50;7.57;;;;;;;23.71;55.97;100389.44;4972291;28;20034;-74
2021/06/19 05:18:24;;;;;;;7.47;6.70;;;;;;;23.70;55.38;100393.97;4972574;28;20038;-75
2021/06/19 05:20:50;;;;;;;9.70;5.97;;;;;;;23.80;55.29;100396.97;4955183;28;20053;-76
2021/06/19 05:23:15;;;;;;;7.10;5.00;;;;;;;23.90;54.86;100399.97;4954319;28;20038;-76
2021/06/19 05:25:40;;;;;;;9.38;6.15;;;;;;;23.95;54.95;100387.91;4972084;28;20039;-76
2021/06/19 05:28:06;;;;;;;7.82;5.75;;;;;;;24.06;54.26;100387.22;4972543;28;20042;-76
2021/06/19 05:30:31;;;;;;;8.88;6.55;;;;;;;24.21;54.59;100388.06;4972412;28;20030;-76
2021/06/19 05:32:57;;;;;;;9.73;8.35;;;;;;;24.35;54.21;100388.03;4971162;28;20491;-75
2021/06/19 05:35:23;;;;;;;9.40;7.28;;;;;;;24.46;54.21;100382.81;4971948;28;20038;-76
2021/06/19 05:37:49;;;;;;;7.10;6.10;;;;;;;24.57;53.96;100381.22;4972320;28;20038;-76
2021/06/19 05:40:14;;;;;;;11.63;10.32;;;;;;;24.68;53.77;100381.34;4952347;28;20455;-76
2021/06/19 05:42:40;;;;;;;15.40;11.85;;;;;;;24.79;53.87;100378.81;4971328;28;20058;-76
2021/06/19 05:45:06;;;;;;;10.95;8.27;;;;;;;24.90;53.51;100381.66;4969471;28;20450;-76
2021/06/19 05:47:31;;;;;;;9.80;8.90;;;;;;;24.98;53.49;100383.81;4952359;28;20511;-76
2021/06/19 05:49:57;;;;;;;9.18;8.02;;;;;;;25.09;52.89;100377.69;4970334;28;20035;-76
2021/06/19 05:52:25;;;;;;;7.53;5.45;;;;;;;25.19;52.88;100376.09;4971185;28;20042;-76
2021/06/19 05:54:50;;;;;;;8.27;6.65;;;;;;;25.33;52.68;100378.69;4965649;28;20043;-76
2021/06/19 05:57:16;;;;;;;7.43;5.85;;;;;;;25.38;52.67;100374.81;4954224;28;20407;-76
2021/06/19 05:59:41;;;;;;;7.68;6.47;;;;;;;25.44;51.29;100380.66;4968655;28;20066;-76
2021/06/19 06:02:07;;;;;;;8.68;7.00;;;;;;;25.55;50.89;100372.66;4971294;28;20590;-76
2021/06/19 06:04:33;;;;;;;8.55;7.72;;;;;;;25.68;50.52;100374.47;4970514;28;20078;-76
2021/06/19 06:06:59;;;;;;;10.18;8.32;;;;;;;25.76;49.83;100372.94;4954226;28;20439;-77
2021/06/19 06:09:24;;;;;;;7.88;5.93;;;;;;;25.85;50.29;100378.69;4970283;28;20097;-77
2021/06/19 06:11:50;;;;;;;8.70;5.68;;;;;;;25.95;49.82;100386.03;4968382;28;20042;-77
2021/06/19 06:14:15;;;;;;;8.23;5.97;;;;;;;26.07;49.63;100378.88;4971869;28;20043;-78
2021/06/19 06:16:40;;;;;;;6.80;5.63;;;;;;;26.18;49.24;100386.19;4972549;28;20035;-77
2021/06/19 06:19:07;;;;;;;6.35;5.18;;;;;;;26.25;48.85;100387.44;4972280;28;20090;-77
2021/06/19 06:21:32;;;;;;;7.32;5.38;;;;;;;26.36;48.87;100392.94;4972349;28;20038;-76
2021/06/19 06:23:57;;;;;;;6.85;5.53;;;;;;;26.47;48.86;100389.44;4970686;28;20035;-77
2021/06/19 06:26:23;;;;;;;6.10;4.05;;;;;;;26.67;47.91;100388.84;4971593;28;20043;-76
2021/06/19 06:28:48;;;;;;;7.53;6.70;;;;;;;26.82;46.70;100391.34;4972104;28;20045;-76
2021/06/19 06:31:14;;;;;;;7.55;4.95;;;;;;;26.89;46.60;100395.31;4972042;28;20042;-75
2021/06/19 06:33:39;;;;;;;5.47;4.80;;;;;;;27.03;46.22;100386.97;4970876;28;20047;-74
2021/06/19 06:36:05;;;;;;;12.20;10.48;;;;;;;27.19;46.32;100388.53;4967775;28;20093;-73
2021/06/19 06:38:30;;;;;;;11.25;5.45;;;;;;;27.27;45.67;100383.38;4951391;28;20035;-75
2021/06/19 06:40:55;;;;;;;6.07;5.47;;;;;;;27.40;45.60;100391.41;4971573;28;20031;-75
2021/06/19 06:43:21;;;;;;;10.85;9.02;;;;;;;27.51;45.68;100386.00;4970025;28;20483;-74
2021/06/19 06:45:46;;;;;;;10.02;8.63;;;;;;;27.66;45.37;100381.19;4968986;28;20101;-75
2021/06/19 06:48:12;;;;;;;10.25;9.15;;;;;;;27.81;44.97;100392.69;4953143;28;20041;-73
2021/06/19 06:50:38;;;;;;;9.05;7.88;;;;;;;27.86;44.20;100383.22;4971593;28;20071;-73
2021/06/19 06:53:03;;;;;;;7.68;6.40;;;;;;;27.95;43.86;100387.88;4970452;28;20106;-73
2021/06/19 06:55:29;;;;;;;7.05;4.63;;;;;;;27.97;43.47;100385.91;4972549;28;20114;-73
2021/06/19 06:57:54;;;;;;;6.07;4.05;;;;;;;28.05;43.82;100390.69;4972629;28;20043;-73
2021/06/19 07:00:20;;;;;;;11.45;9.27;;;;;;;28.19;43.70;100389.56;4975074;28;20469;-73
2021/06/19 07:02:45;;;;;;;6.15;4.45;;;;;;;28.29;42.97;100393.25;4975021;28;20042;-73
2021/06/19 07:05:11;;;;;;;6.68;4.95;;;;;;;28.37;42.68;100398.94;4974599;28;20130;-73
2021/06/19 07:07:38;;;;;;;6.78;5.63;;;;;;;28.45;43.36;100387.44;4974884;28;20521;-73
2021/06/19 07:10:05;;;;;;;7.95;5.38;;;;;;;28.46;42.43;100391.03;4974921;28;20038;-73
2021/06/19 07:12:31;;;;;;;10.45;7.25;;;;;;;28.56;42.24;100392.00;4974756;28;20027;-73
2021/06/19 07:14:56;;;;;;;7.50;4.47;;;;;;;28.71;42.03;100385.25;4974484;28;20384;-73
2021/06/19 07:17:21;;;;;;;4.57;4.13;;;;;;;28.86;41.57;100384.94;4975018;28;20041;-73
2021/06/19 07:19:47;;;;;;;8.57;6.80;;;;;;;28.93;42.08;100389.72;4974688;28;20042;-73
2021/06/19 07:22:12;;;;;;;6.63;5.15;;;;;;;29.05;41.42;100388.69;4974717;28;20034;-73
2021/06/19 07:24:37;;;;;;;6.85;4.28;;;;;;;29.13;41.16;100382.59;4974425;28;20380;-73
2021/06/19 07:27:03;;;;;;;6.65;5.75;;;;;;;29.23;41.20;100377.22;4974517;28;20415;-73
2021/06/19 07:29:29;;;;;;;7.72;6.60;;;;;;;29.34;41.03;100371.72;4974604;28;20039;-73
2021/06/19 07:31:54;;;;;;;7.90;6.30;;;;;;;29.41;40.07;100381.06;4974537;28;20406;-73
2021/06/19 07:34:20;;;;;;;6.63;5.00;;;;;;;29.52;40.23;100380.13;4974058;28;20101;-73
2021/06/19 07:36:45;;;;;;;8.70;6.70;;;;;;;29.61;40.61;100381.19;4974442;28;20050;-73
2021/06/19 07:39:12;;;;;;;10.70;5.80;;;;;;;29.69;39.59;100387.69;4974369;28;20031;-74
2021/06/19 07:41:38;;;;;;;7.53;4.97;;;;;;;29.76;40.17;100382.53;4974329;28;20081;-73
2021/06/19 07:44:04;;;;;;;6.50;5.60;;;;;;;29.92;40.02;100384.75;4974560;28;20035;-73
2021/06/19 07:46:29;;;;;;;9.30;8.30;;;;;;;29.95;39.87;100383.63;4973946;28;20034;-74
2021/06/19 07:48:54;;;;;;;7.43;6.68;;;;;;;30.08;39.15;100386.97;4974178;28;20039;-74
2021/06/19 07:51:20;;;;;;;9.77;8.77;;;;;;;30.08;39.21;100387.84;4974200;28;20375;-73
2021/06/19 07:53:45;;;;;;;10.90;8.68;;;;;;;30.16;39.23;100389.88;4974202;28;20042;-73
2021/06/19 07:56:10;;;;;;;9.00;5.47;;;;;;;30.28;39.72;100383.31;4973645;28;20422;-73
2021/06/19 07:58:36;;;;;;;7.57;5.97;;;;;;;30.28;39.24;100385.19;4974082;28;20462;-73
2021/06/19 08:01:01;;;;;;;6.63;5.28;;;;;;;30.23;38.73;100380.16;4973915;28;20050;-73
2021/06/19 08:03:27;;;;;;;10.15;5.53;;;;;;;30.28;39.39;100382.47;4973906;28;20106;-73
2021/06/19 08:05:52;;;;;;;7.32;6.63;;;;;;;30.42;38.59;100392.97;4972458;28;20038;-73
2021/06/19 08:08:18;;;;;;;5.45;4.60;;;;;;;30.49;38.94;100396.81;4970248;28;20046;-73
2021/06/19 08:10:43;;;;;;;7.88;4.70;;;;;;;30.52;38.30;100396.56;4973799;28;20121;-73
2021/06/19 08:13:09;;;;;;;7.78;4.65;;;;;;;30.63;38.71;100397.41;4973645;28;20038;-73
2021/06/19 08:15:35;;;;;;;6.63;4.68;;;;;;;30.70;38.53;100393.09;4973363;28;20034;-74
2021/06/19 08:18:01;;;;;;;6.78;4.40;;;;;;;30.80;38.41;100400.28;4973687;28;20526;-73
2021/06/19 08:20:28;;;;;;;6.63;4.35;;;;;;;30.78;39.36;100393.25;4973664;28;20039;-73
2021/06/19 08:22:53;;;;;;;6.50;4.10;;;;;;;30.90;38.73;100394.00;4973615;28;20054;-74
2021/06/19 08:25:18;;;;;;;7.30;4.07;;;;;;;31.05;39.06;100394.41;4973214;28;20035;-73
2021/06/19 08:27:44;;;;;;;8.30;4.65;;;;;;;31.07;38.39;100384.22;4973461;28;20117;-74
2021/06/19 08:30:10;;;;;;;6.45;4.20;;;;;;;31.12;37.72;100382.78;4973488;28;20038;-73
2021/06/19 08:32:36;;;;;;;5.38;4.47;;;;;;;31.31;37.26;100371.00;4973523;28;20486;-74
2021/06/19 08:35:01;;;;;;;5.57;4.55;;;;;;;31.47;37.78;100385.91;4972980;28;20058;-74
2021/06/19 08:37:27;;;;;;;5.78;4.70;;;;;;;31.48;37.60;100387.63;4971996;28;20578;-73
2021/06/19 08:39:52;;;;;;;5.78;4.50;;;;;;;31.54;37.04;100378.84;4973493;28;20042;-73
2021/06/19 08:42:17;;;;;;;5.00;4.50;;;;;;;31.61;37.41;100377.25;4973266;28;20479;-73
2021/06/19 08:44:45;;;;;;;9.98;5.07;;;;;;;31.65;38.02;100378.69;4972914;28;20573;-74
2021/06/19 08:47:11;;;;;;;5.20;4.30;;;;;;;31.63;37.92;100381.56;4953463;28;20043;-74
2021/06/19 08:49:36;;;;;;;6.60;4.57;;;;;;;31.69;37.35;100379.22;4973169;28;20055;-74
2021/06/19 08:52:03;;;;;;;6.20;4.38;;;;;;;31.79;37.23;100377.31;4973170;28;20512;-73
2021/06/19 08:54:38;;;;;;;5.25;4.07;;;;;;;31.85;37.11;100366.66;4969187;28;20039;-73
2021/06/19 08:57:05;;;;;;;5.00;4.00;;;;;;;31.90;37.48;100366.22;4973042;28;20046;-74
2021/06/19 08:59:31;;;;;;;7.28;4.78;;;;;;;31.94;37.36;100367.66;4972980;28;20042;-73
2021/06/19 09:01:56;;;;;;;6.20;4.93;;;;;;;32.08;37.20;100358.94;4972836;28;20039;-74
2021/06/19 09:04:21;;;;;;;6.38;4.35;;;;;;;32.13;36.91;100360.38;4972424;28;20047;-74
2021/06/19 09:06:46;;;;;;;4.90;4.40;;;;;;;32.11;37.38;100367.84;4972739;28;20039;-73
2021/06/19 09:09:16;;;;;;;5.65;4.13;;;;;;;32.23;36.93;100361.19;4972781;28;20165;-74
2021/06/19 09:11:50;;;;;;;5.97;4.68;;;;;;;32.30;36.66;100371.34;4972758;28;20034;-74
2021/06/19 09:14:24;;;;;;;6.25;4.70;;;;;;;32.46;36.09;100367.03;4952164;28;20416;-73
2021/06/19 09:17:04;;;;;;;7.53;4.93;;;;;;;32.52;36.47;100359.13;4972560;28;20041;-74
2021/06/19 09:19:35;;;;;;;6.47;4.73;;;;;;;32.57;37.47;100358.66;4972648;28;20555;-73
2021/06/19 09:22:21;;;;;;;7.53;4.55;;;;;;;32.68;36.55;100361.16;4952877;28;20460;-74
2021/06/19 09:24:55;;;;;;;6.30;4.32;;;;;;;32.71;35.48;100352.63;5004985;23;20666;-81
2021/06/19 09:27:42;;;;;;;6.28;4.60;;;;;;;32.79;34.70;100362.78;4956262;29;20131;-81
2021/06/19 09:30:13;;;;;;;5.35;4.30;;;;;;;32.84;34.42;100359.56;4940439;29;20143;-81
2021/06/19 09:32:56;;;;;;;7.90;4.70;;;;;;;32.93;34.47;100353.16;4937907;29;20122;-81
2021/06/19 09:35:30;;;;;;;5.43;4.40;;;;;;;32.88;35.29;100356.38;4938456;29;20075;-81
2021/06/19 09:38:14;;;;;;;6.45;4.57;;;;;;;33.01;35.56;100361.44;4905385;29;20036;-81
2021/06/19 09:40:42;;;;;;;6.53;4.47;;;;;;;33.17;34.69;100364.31;4937518;29;20404;-81
2021/06/19 09:43:14;;;;;;;5.20;4.70;;;;;;;33.25;34.70;100357.16;4905697;29;20036;-81
2021/06/19 09:45:42;;;;;;;7.40;5.00;;;;;;;33.26;34.50;100353.44;4920886;29;20059;-81
2021/06/19 09:48:23;;;;;;;5.72;4.43;;;;;;;33.36;34.35;100354.19;4928449;29;20513;-81
2021/06/19 09:51:08;;;;;;;6.70;4.63;;;;;;;33.47;33.58;100351.16;4938435;29;20067;-81
2021/06/19 09:53:34;;;;;;;6.65;4.82;;;;;;;33.60;33.72;100357.06;4937210;29;20028;-81
2021/06/19 09:56:20;;;;;;;5.05;4.30;;;;;;;33.78;33.56;100353.41;4920995;29;20046;-81
2021/06/19 09:58:53;;;;;;;5.80;4.80;;;;;;;33.99;32.97;100356.56;4938350;29;20488;-81
2021/06/19 10:01:36;;;;;;;4.25;3.70;;;;;;;34.22;32.00;100345.03;4913719;29;20036;-81
2021/06/19 10:04:03;;;;;;;6.68;4.07;;;;;;;34.44;32.25;100352.59;4928959;29;20123;-81
2021/06/19 10:06:29;;;;;;;5.63;4.32;;;;;;;34.52;31.87;100349.03;4937347;29;20106;-81
2021/06/19 10:08:56;;;;;;;4.22;3.83;;;;;;;34.58;32.15;100355.72;4937141;29;20058;-81
2021/06/19 10:11:26;;;;;;;5.15;3.95;;;;;;;34.45;31.98;100354.34;4937863;29;20099;-81
2021/06/19 10:13:57;;;;;;;4.38;3.70;;;;;;;34.42;30.88;100346.44;4920212;29;20043;-81
2021/06/19 10:16:24;;;;;;;5.28;4.10;;;;;;;34.43;31.69;100347.31;4901260;29;20521;-81
2021/06/19 10:18:51;;;;;;;4.90;4.40;;;;;;;34.55;31.29;100345.09;4937891;29;20040;-81
2021/06/19 10:21:17;;;;;;;5.38;4.10;;;;;;;34.64;30.34;100344.13;4937311;29;20126;-81
2021/06/19 10:23:43;;;;;;;6.30;3.90;;;;;;;34.71;29.27;100347.84;4920759;29;20134;-81
2021/06/19 10:26:09;;;;;;;5.40;4.00;;;;;;;34.65;29.69;100348.56;4937162;29;20052;-81
2021/06/19 10:28:41;;;;;;;6.47;4.05;;;;;;;34.83;29.50;100338.28;4938354;29;20488;-81
2021/06/19 10:31:07;;;;;;;8.90;4.25;;;;;;;34.89;29.24;100343.06;4940810;29;20031;-81
2021/06/19 10:33:35;;;;;;;5.22;3.80;;;;;;;34.86;28.83;100342.56;4941598;29;20529;-81
2021/06/19 10:36:03;;;;;;;5.30;4.03;;;;;;;35.06;28.49;100340.31;4924525;29;20093;-81
2021/06/19 10:38:29;;;;;;;4.88;4.05;;;;;;;35.25;27.68;100339.97;4940994;29;20408;-81
2021/06/19 10:41:04;;;;;;;4.88;3.90;;;;;;;35.23;28.43;100339.28;4924065;29;20046;-81
2021/06/19 10:43:31;;;;;;;5.60;4.18;;;;;;;35.40;29.26;100348.34;4923566;29;20086;-81
2021/06/19 10:46:30;;;;;;;7.50;4.00;;;;;;;35.54;28.46;100339.38;4940768;29;20035;-81
2021/06/19 10:48:55;;;;;;;6.97;4.95;;;;;;;35.48;28.56;100331.00;4904261;29;20143;-81
2021/06/19 10:51:23;;;;;;;6.22;4.13;;;;;;;35.46;28.48;100333.06;4924568;29;20156;-81
2021/06/19 10:54:10;;;;;;;7.38;5.13;;;;;;;35.69;28.59;100331.31;4923873;29;20451;-81
2021/06/19 10:56:56;;;;;;;7.82;4.88;;;;;;;35.82;28.41;100333.47;4915912;29;20091;-81
2021/06/19 10:59:27;;;;;;;6.22;4.00;;;;;;;35.96;27.51;100324.47;4939714;29;20115;-82
2021/06/19 11:01:55;;;;;;;6.90;4.40;;;;;;;36.07;27.56;100325.13;4924114;29;20031;-81
2021/06/19 11:04:39;;;;;;;6.47;4.38;;;;;;;36.23;26.93;100313.19;4940006;29;20036;-82
2021/06/19 11:07:16;;;;;;;6.53;4.20;;;;;;;36.52;27.01;100326.22;4923249;29;20046;-82
2021/06/19 11:09:48;;;;;;;6.65;3.97;;;;;;;36.49;27.16;100312.84;4921615;29;20064;-82
2021/06/19 11:12:24;;;;;;;8.45;4.13;;;;;;;36.34;26.72;100326.50;4940038;29;20043;-81
2021/06/19 11:14:51;;;;;;;9.23;4.03;;;;;;;36.24;26.84;100320.41;4939802;29;20134;-82
2021/06/19 11:17:23;;;;;;;5.80;3.90;;;;;;;36.32;26.73;100306.63;4907712;29;20044;-81
2021/06/19 11:19:55;;;;;;;4.88;4.30;;;;;;;36.02;27.45;100309.16;4939968;29;20119;-81
2021/06/19 11:22:29;;;;;;;4.30;3.58;;;;;;;36.49;26.65;100299.09;4931697;29;20031;-81
2021/06/19 11:25:51;;;;;;;4.88;3.80;;;;;;;36.63;26.62;100292.84;4922601;29;20074;-81
2021/06/19 11:28:21;;;;;;;5.10;3.90;;;;;;;37.15;25.61;100285.66;4939425;29;20036;-81